createdAt,value
2022-08-02T00:01:21.847Z,99980.25
2022-08-02T00:03:52.099Z,99984.31
2022-08-02T00:06:23.444Z,99979.38
2022-08-02T00:08:55.327Z,99986.13
2022-08-02T00:11:25.899Z,99989.06
2022-08-02T00:13:56.047Z,99987.69
2022-08-02T00:16:37.979Z,99985.97
2022-08-02T00:19:08.988Z,99981.06
2022-08-02T00:21:39.340Z,99991.34
2022-08-02T00:24:29.812Z,99973.63
2022-08-02T00:27:00.027Z,99986.84
2022-08-02T00:29:30.641Z,99977.81
2022-08-02T00:32:00.956Z,99983.19
2022-08-02T00:34:36.215Z,99973.13
2022-08-02T00:37:08.759Z,99984.22
2022-08-02T00:39:39.459Z,99978.50
2022-08-02T00:42:11.630Z,99984.66
2022-08-02T00:44:42.097Z,99993.34
2022-08-02T00:47:19.034Z,99987.50
2022-08-02T00:49:50.148Z,99994.50
2022-08-02T00:52:21.401Z,99984.63
2022-08-02T00:54:52.626Z,99993.50
2022-08-02T00:57:23.858Z,99991.00
2022-08-02T00:59:54.411Z,99991.50
2022-08-02T01:02:25.213Z,99978.72
2022-08-02T01:04:55.535Z,99987.09
2022-08-02T01:07:26.008Z,99974.50
2022-08-02T01:09:56.888Z,99973.81
2022-08-02T01:12:27.335Z,99970.19
2022-08-02T01:15:03.469Z,99969.81
2022-08-02T01:17:51.619Z,99963.97
2022-08-02T01:20:50.977Z,99961.94
2022-08-02T01:23:30.572Z,99967.28
2022-08-02T01:26:11.247Z,99975.88
2022-08-02T01:28:45.273Z,99970.03
2022-08-02T01:31:31.740Z,99962.03
2022-08-02T01:34:09.878Z,99964.66
2022-08-02T01:36:47.811Z,99965.66
2022-08-02T01:39:26.820Z,99967.22
2022-08-02T01:42:04.447Z,99964.50
2022-08-02T01:44:38.890Z,99967.72
2022-08-02T01:47:16.144Z,99964.19
2022-08-02T01:49:53.553Z,99956.81
2022-08-02T01:52:27.490Z,99955.72
2022-08-02T01:55:16.094Z,99967.91
2022-08-02T01:57:57.758Z,99968.22
2022-08-02T02:00:33.840Z,99967.72
2022-08-02T02:03:12.358Z,99964.28
2022-08-02T02:05:46.150Z,99964.97
2022-08-02T02:08:27.070Z,99967.91
2022-08-02T02:12:10.134Z,99956.88
2022-08-02T02:13:53.080Z,99955.75
2022-08-02T02:16:29.095Z,99954.34
2022-08-02T02:19:05.563Z,99955.63
2022-08-02T02:21:36.659Z,99953.28
2022-08-02T02:24:11.679Z,99953.06
2022-08-02T02:26:52.426Z,99948.84
2022-08-02T02:29:27.654Z,99954.59
2022-08-02T02:32:01.068Z,99953.47
2022-08-02T02:34:44.681Z,99959.94
2022-08-02T02:37:26.099Z,99955.09
2022-08-02T02:39:57.342Z,99956.19
2022-08-02T02:42:33.413Z,99952.88
2022-08-02T02:45:06.626Z,99949.53
2022-08-02T02:47:40.861Z,99954.03
2022-08-02T02:50:15.327Z,99962.75
2022-08-02T02:52:48.695Z,99961.91
2022-08-02T02:55:21.078Z,99956.44
2022-08-02T02:57:52.904Z,99949.09
2022-08-02T03:00:44.197Z,99954.22
2022-08-02T03:03:21.291Z,99947.53
2022-08-02T03:05:55.123Z,99950.94
2022-08-02T03:08:26.086Z,99950.63
2022-08-02T03:11:01.113Z,99943.75
2022-08-02T03:13:37.469Z,99940.56
2022-08-02T03:16:09.619Z,99942.56
2022-08-02T03:18:48.712Z,99942.91
2022-08-02T03:21:19.723Z,99941.53
2022-08-02T03:23:51.453Z,99935.25
2022-08-02T03:26:25.999Z,99926.91
2022-08-02T03:29:00.297Z,99926.78
2022-08-02T03:31:50.841Z,99921.19
2022-08-02T03:34:22.912Z,99908.31
2022-08-02T03:36:58.420Z,99910.75
2022-08-02T03:39:30.828Z,99908.38
2022-08-02T03:42:03.131Z,99909.69
2022-08-02T03:44:35.756Z,99908.84
2022-08-02T03:47:08.047Z,99908.84
2022-08-02T03:49:40.152Z,99898.44
2022-08-02T03:52:17.467Z,99900.34
2022-08-02T03:54:59.775Z,99900.03
2022-08-02T03:58:01.170Z,99902.94
2022-08-02T04:08:36.410Z,99891.22
2022-08-02T04:10:23.037Z,99885.59
2022-08-02T04:13:19.294Z,99881.59
2022-08-02T04:16:08.702Z,99886.75
2022-08-02T04:19:03.247Z,99886.66
2022-08-02T04:21:51.620Z,99879.09
2022-08-02T04:24:36.856Z,99868.31
2022-08-02T04:27:49.056Z,99861.44
2022-08-02T04:30:16.500Z,99867.38
2022-08-02T04:33:11.501Z,99865.13
2022-08-02T04:35:59.872Z,99859.03
2022-08-02T04:38:42.217Z,99864.16
2022-08-02T04:41:16.111Z,99857.56
2022-08-02T04:44:07.568Z,99850.19
2022-08-02T04:47:54.417Z,99845.03
2022-08-02T04:50:35.918Z,99843.75
2022-08-02T04:53:47.380Z,99845.03
2022-08-02T04:59:54.673Z,99830.41
2022-08-02T05:02:43.969Z,99830.25
2022-08-02T05:05:56.248Z,99823.00
2022-08-02T05:09:07.606Z,99813.03
2022-08-02T05:14:31.387Z,99812.22
2022-08-02T05:17:54.719Z,99818.31
2022-08-02T05:20:43.858Z,99808.31
2022-08-02T05:23:23.986Z,99805.72
2022-08-02T05:26:15.739Z,99800.25
2022-08-02T05:28:58.301Z,99806.50
2022-08-02T05:31:35.225Z,99806.88
2022-08-02T05:34:43.357Z,99799.13
2022-08-02T05:37:33.006Z,99794.31
2022-08-02T05:40:40.744Z,99798.00
2022-08-02T05:43:35.022Z,99794.63
2022-08-02T05:46:14.243Z,99795.41
2022-08-02T05:48:56.621Z,99797.84
2022-08-02T05:52:02.131Z,99788.81
2022-08-02T05:54:45.050Z,99801.88
2022-08-02T05:57:22.682Z,99786.88
2022-08-02T06:00:16.097Z,99775.47
2022-08-02T06:02:59.368Z,99775.59
2022-08-02T06:05:42.352Z,99776.41
2022-08-02T06:08:16.564Z,99772.41
2022-08-02T06:10:48.603Z,99773.88
2022-08-02T06:13:21.065Z,99776.94
2022-08-02T06:15:54.994Z,99770.00
2022-08-02T06:18:27.137Z,99767.72
2022-08-02T06:22:32.444Z,99772.56
2022-08-02T06:24:08.921Z,99762.69
2022-08-02T06:26:50.259Z,99764.00
2022-08-02T06:29:25.959Z,99753.34
2022-08-02T06:32:03.150Z,99756.56
2022-08-02T06:34:44.571Z,99762.69
2022-08-02T06:37:40.458Z,99765.25
2022-08-02T06:40:23.832Z,99766.06
2022-08-02T06:43:11.666Z,99758.19
2022-08-02T06:45:49.615Z,99766.56
2022-08-02T06:55:05.406Z,99763.06
2022-08-02T06:57:44.868Z,99764.66
2022-08-02T07:00:16.050Z,99758.88
2022-08-02T07:02:51.602Z,99754.00
2022-08-02T07:05:25.661Z,99757.03
2022-08-02T07:07:56.439Z,99750.28
2022-08-02T07:10:26.742Z,99742.22
2022-08-02T07:12:59.940Z,99748.63
2022-08-02T07:15:30.969Z,99746.50
2022-08-02T07:18:01.535Z,99747.00
2022-08-02T07:20:32.263Z,99737.31
2022-08-02T07:23:02.769Z,99737.44
2022-08-02T07:26:02.444Z,99745.34
2022-08-02T07:28:24.777Z,99732.44
2022-08-02T07:30:55.400Z,99730.53
2022-08-02T07:33:37.884Z,99729.06
2022-08-02T07:36:16.867Z,99739.03
2022-08-02T07:38:53.357Z,99734.34
2022-08-02T07:41:26.799Z,99733.88
2022-08-02T07:44:17.413Z,99740.94
2022-08-02T07:47:11.158Z,99740.28
2022-08-02T07:53:49.872Z,99733.50
2022-08-02T07:56:57.509Z,99733.63
2022-08-02T08:03:28.044Z,99737.50
2022-08-02T08:06:45.732Z,99730.25
2022-08-02T08:09:56.256Z,99733.22
2022-08-02T08:13:02.670Z,99723.84
2022-08-02T08:15:51.857Z,99727.53
2022-08-02T08:18:37.436Z,99724.44
2022-08-02T08:21:39.787Z,99724.91
2022-08-02T08:36:35.639Z,99710.00
2022-08-02T08:45:13.657Z,99703.56
2022-08-02T08:50:27.142Z,99714.03
2022-08-02T09:15:05.540Z,99695.53
2022-08-02T09:18:41.514Z,99698.88
2022-08-02T09:21:21.588Z,99698.56
2022-08-02T09:23:54.701Z,99698.69
2022-08-02T09:26:26.539Z,99693.22
2022-08-02T09:29:02.701Z,99692.88
2022-08-02T09:31:36.743Z,99699.81
2022-08-02T09:34:08.031Z,99692.28
2022-08-02T09:36:43.775Z,99698.69
2022-08-02T09:39:17.021Z,99701.09
2022-08-02T09:41:47.934Z,99700.31
2022-08-02T09:44:18.548Z,99701.75
2022-08-02T09:46:49.362Z,99701.28
2022-08-02T09:49:21.374Z,99699.22
2022-08-02T09:51:54.764Z,99701.47
2022-08-02T09:54:32.636Z,99706.81
2022-08-02T09:57:03.930Z,99706.63
2022-08-02T09:59:34.070Z,99703.44
2022-08-02T10:02:16.829Z,99699.06
2022-08-02T10:04:52.515Z,99700.56
2022-08-02T10:07:25.637Z,99699.72
2022-08-02T10:09:56.977Z,99702.81
2022-08-02T10:12:27.802Z,99707.31
2022-08-02T10:14:57.907Z,99704.13
2022-08-02T10:17:27.403Z,99709.91
2022-08-02T10:20:01.706Z,99699.16
2022-08-02T10:22:37.486Z,99701.09
2022-08-02T10:25:08.432Z,99704.81
2022-08-02T10:28:03.866Z,99705.47
2022-08-02T10:30:31.851Z,99704.97
2022-08-02T10:33:04.971Z,99709.97
2022-08-02T10:35:41.318Z,99714.50
2022-08-02T10:41:53.971Z,99718.91
2022-08-02T10:44:30.605Z,99715.19
2022-08-02T10:47:29.649Z,99720.50
2022-08-02T10:50:02.492Z,99716.78
2022-08-02T10:52:33.160Z,99729.84
2022-08-02T10:55:13.440Z,99734.34
2022-08-02T10:57:47.007Z,99733.72
2022-08-02T11:00:26.748Z,99733.88
2022-08-02T11:02:57.090Z,99721.00
2022-08-02T11:05:42.684Z,99721.34
2022-08-02T11:08:26.466Z,99729.41
2022-08-02T11:11:18.630Z,99724.09
2022-08-02T11:14:11.487Z,99734.38
2022-08-02T11:17:00.612Z,99730.69
2022-08-02T11:19:32.040Z,99735.16
2022-08-02T11:22:04.333Z,99732.91
2022-08-02T11:24:36.138Z,99741.41
2022-08-02T11:27:09.271Z,99740.47
2022-08-02T11:29:47.926Z,99741.41
2022-08-02T11:32:31.272Z,99750.25
2022-08-02T11:35:04.957Z,99744.91
2022-08-02T11:37:38.475Z,99748.31
2022-08-02T11:40:19.135Z,99750.56
2022-08-02T11:42:52.023Z,99749.56
2022-08-02T11:45:29.963Z,99749.41
2022-08-02T11:48:01.874Z,99743.94
2022-08-02T11:50:32.998Z,99751.00
2022-08-02T11:53:04.270Z,99761.28
2022-08-02T11:55:38.901Z,99769.75
2022-08-02T11:58:12.950Z,99767.66
2022-08-02T12:00:48.400Z,99768.91
2022-08-02T12:03:19.927Z,99762.66
2022-08-02T12:06:04.790Z,99772.28
2022-08-02T12:08:39.814Z,99777.59
2022-08-02T12:11:10.738Z,99778.50
2022-08-02T12:13:56.597Z,99787.81
2022-08-02T12:16:56.108Z,99791.19
2022-08-02T12:19:48.920Z,99793.41
2022-08-02T12:22:50.218Z,99791.34
2022-08-02T12:25:33.590Z,99800.94
2022-08-02T12:28:28.944Z,99808.63
2022-08-02T12:31:30.217Z,99803.31
2022-08-02T12:34:30.086Z,99813.75
2022-08-02T12:37:12.087Z,99820.66
2022-08-02T12:39:56.731Z,99825.91
2022-08-02T12:42:42.650Z,99828.44
2022-08-02T12:45:38.402Z,99822.50
2022-08-02T12:48:15.636Z,99823.09
2022-08-02T12:50:59.087Z,99823.41
2022-08-02T12:53:59.091Z,99828.03
2022-08-02T13:00:14.733Z,99826.88
2022-08-02T13:02:59.002Z,99831.06
2022-08-02T13:05:57.067Z,99837.91
2022-08-02T13:09:16.128Z,99841.25
2022-08-02T13:11:54.670Z,99840.78
2022-08-02T13:15:05.560Z,99842.22
2022-08-02T13:18:08.360Z,99842.81
2022-08-02T13:20:52.381Z,99853.25
2022-08-02T13:23:54.311Z,99850.03
2022-08-02T13:27:09.684Z,99856.56
2022-08-02T13:29:44.404Z,99861.53
2022-08-02T13:32:21.957Z,99859.41
2022-08-02T13:35:07.335Z,99861.66
2022-08-02T13:38:05.525Z,99869.84
2022-08-02T13:41:14.641Z,99868.50
2022-08-02T13:44:12.339Z,99859.03
2022-08-02T13:46:46.224Z,99854.69
2022-08-02T13:49:51.033Z,99863.69
2022-08-02T13:55:34.101Z,99880.97
2022-08-02T13:59:00.651Z,99871.81
2022-08-02T14:02:27.522Z,99868.56
2022-08-02T14:05:04.776Z,99870.75
2022-08-02T14:08:26.160Z,99878.13
2022-08-02T14:11:28.107Z,99865.09
2022-08-02T14:17:13.386Z,99881.56
2022-08-02T14:19:46.260Z,99889.75
2022-08-02T14:22:49.379Z,99874.81
2022-08-02T14:25:58.922Z,99875.44
2022-08-02T14:28:43.828Z,99881.72
2022-08-02T14:31:29.629Z,99882.50
2022-08-02T14:34:42.407Z,99877.84
2022-08-02T14:37:30.430Z,99878.47
2022-08-02T14:40:27.924Z,99880.69
2022-08-02T14:43:51.962Z,99880.97
2022-08-02T14:46:31.429Z,99875.03
2022-08-02T14:52:49.708Z,99864.75
2022-08-02T14:56:03.057Z,99866.38
2022-08-02T14:58:39.395Z,99864.84
2022-08-02T15:01:30.406Z,99870.00
2022-08-02T15:04:15.938Z,99873.25
2022-08-02T15:07:17.565Z,99872.13
2022-08-02T15:09:52.061Z,99870.53
2022-08-02T15:12:23.233Z,99875.13
2022-08-02T15:15:12.889Z,99882.03
2022-08-02T15:17:52.798Z,99890.19
2022-08-02T15:20:59.646Z,99888.88
2022-08-02T15:23:49.169Z,99888.47
2022-08-02T15:26:44.327Z,99887.38
2022-08-02T15:29:25.250Z,99890.41
2022-08-02T15:32:08.504Z,99877.38
2022-08-02T15:34:44.822Z,99876.88
2022-08-02T15:37:22.887Z,99878.81
2022-08-02T15:40:05.615Z,99878.31
2022-08-02T15:43:02.969Z,99877.78
2022-08-02T15:45:43.423Z,99875.97
2022-08-02T15:48:24.266Z,99873.81
2022-08-02T15:51:06.451Z,99877.78
2022-08-02T15:53:59.721Z,99888.97
2022-08-02T15:57:03.997Z,99878.66
2022-08-02T16:00:01.938Z,99878.47
2022-08-02T16:02:49.805Z,99874.41
2022-08-02T16:08:29.258Z,99886.22
2022-08-02T16:14:19.646Z,99870.28
2022-08-02T16:17:03.548Z,99871.38
2022-08-02T16:19:48.666Z,99865.72
2022-08-02T16:22:33.810Z,99871.47
2022-08-02T16:25:16.944Z,99872.88
2022-08-02T16:28:07.391Z,99870.16
2022-08-02T16:31:11.084Z,99869.97
2022-08-02T16:33:56.528Z,99866.44
2022-08-02T16:39:27.829Z,99869.47
2022-08-02T16:42:25.448Z,99880.34
2022-08-02T16:45:02.169Z,99875.50
2022-08-02T16:47:43.770Z,99872.78
2022-08-02T16:50:31.027Z,99872.28
2022-08-02T16:53:14.416Z,99876.38
2022-08-02T16:55:57.214Z,99876.38
2022-08-02T16:58:34.683Z,99881.31
2022-08-02T17:01:13.482Z,99888.69
2022-08-02T17:03:56.180Z,99887.06
2022-08-02T17:06:36.026Z,99892.00
2022-08-02T17:09:10.320Z,99896.34
2022-08-02T17:14:32.543Z,99884.13
2022-08-02T17:17:13.347Z,99887.94
2022-08-02T17:19:45.385Z,99895.28
2022-08-02T17:22:20.632Z,99882.78
2022-08-02T17:24:51.751Z,99882.00
2022-08-02T17:27:23.065Z,99897.50
2022-08-02T17:29:53.766Z,99888.81
2022-08-02T17:32:24.618Z,99885.59
2022-08-02T17:35:03.755Z,99898.69
2022-08-02T17:37:37.523Z,99898.19
2022-08-02T17:40:12.911Z,99893.56
2022-08-02T17:42:50.358Z,99891.13
2022-08-02T17:45:25.263Z,99894.94
2022-08-02T17:48:04.812Z,99889.81
2022-08-02T17:50:36.500Z,99906.72
2022-08-02T17:53:07.427Z,99897.97
2022-08-02T17:55:42.451Z,99891.19
2022-08-02T17:58:13.428Z,99896.94
2022-08-02T18:00:45.107Z,99894.22
2022-08-02T18:03:15.985Z,99887.19
2022-08-02T18:05:53.512Z,99881.53
2022-08-02T18:08:26.256Z,99878.25
2022-08-02T18:10:58.271Z,99879.38
2022-08-02T18:13:33.109Z,99881.91
2022-08-02T18:16:20.890Z,99875.63
2022-08-02T18:18:52.819Z,99877.03
2022-08-02T18:21:23.431Z,99881.97
2022-08-02T18:23:58.490Z,99879.53
2022-08-02T18:26:30.367Z,99880.97
2022-08-02T18:29:09.703Z,99888.28
2022-08-02T18:34:34.176Z,99883.44
2022-08-02T18:37:05.142Z,99881.03
2022-08-02T18:39:38.634Z,99880.22
2022-08-02T18:42:09.161Z,99873.16
2022-08-02T18:44:41.210Z,99877.78
2022-08-02T18:47:11.785Z,99868.03
2022-08-02T18:49:46.559Z,99860.75
2022-08-02T18:52:30.991Z,99872.13
2022-08-02T18:55:04.355Z,99874.63
2022-08-02T18:58:16.820Z,99875.75
2022-08-02T19:00:29.352Z,99871.69
2022-08-02T19:02:59.536Z,99869.81
2022-08-02T19:05:53.699Z,99867.38
2022-08-02T19:08:20.400Z,99861.41
2022-08-02T19:10:57.438Z,99857.34
2022-08-02T19:13:33.781Z,99861.19
2022-08-02T19:16:05.679Z,99871.81
2022-08-02T19:18:36.290Z,99869.19
2022-08-02T19:21:07.418Z,99869.19
2022-08-02T19:23:54.488Z,99869.19
2022-08-02T19:26:25.919Z,99869.75
2022-08-02T19:28:56.302Z,99869.75
2022-08-02T19:31:34.650Z,99869.75
2022-08-02T19:34:19.189Z,99870.13
2022-08-02T19:36:55.344Z,99867.63
2022-08-02T19:39:25.411Z,99870.34
2022-08-02T19:41:57.050Z,99864.97
2022-08-02T19:44:29.492Z,99859.25
2022-08-02T19:47:00.039Z,99867.69
2022-08-02T19:49:39.470Z,99865.25
2022-08-02T19:52:21.682Z,99859.03
2022-08-02T19:54:57.875Z,99863.66
2022-08-02T19:57:29.738Z,99858.22
2022-08-02T20:00:07.617Z,99863.97
2022-08-02T20:02:46.580Z,99865.03
2022-08-02T20:05:24.187Z,99868.06
2022-08-02T20:07:56.981Z,99871.59
2022-08-02T20:10:27.878Z,99860.19
2022-08-02T20:12:57.928Z,99861.03
2022-08-02T20:15:55.689Z,99862.91
2022-08-02T20:18:25.400Z,99866.22
2022-08-02T20:20:57.111Z,99873.88
2022-08-02T20:26:17.465Z,99869.00
2022-08-02T20:28:52.735Z,99875.81
2022-08-02T20:31:23.045Z,99865.25
2022-08-02T20:33:55.866Z,99871.22
2022-08-02T20:36:28.360Z,99876.09
2022-08-02T20:38:58.471Z,99881.03
2022-08-02T20:41:36.975Z,99885.38
2022-08-02T20:44:30.785Z,99882.94
2022-08-02T20:47:01.394Z,99888.09
2022-08-02T20:49:40.782Z,99888.66
2022-08-02T20:52:23.107Z,99895.72
2022-08-02T20:54:55.083Z,99901.44
2022-08-02T20:57:48.406Z,99905.53
2022-08-02T21:00:16.449Z,99901.81
2022-08-02T21:02:47.411Z,99903.09
2022-08-02T21:05:18.535Z,99898.78
2022-08-02T21:07:53.552Z,99898.78
2022-08-02T21:10:25.280Z,99903.44
2022-08-02T21:12:55.345Z,99905.31
2022-08-02T21:15:26.587Z,99907.22
2022-08-02T21:17:58.959Z,99911.03
2022-08-02T21:20:33.541Z,99908.91
2022-08-02T21:23:05.165Z,99896.16
2022-08-02T21:25:56.760Z,99906.19
2022-08-02T21:28:43.483Z,99908.91
2022-08-02T21:31:18.340Z,99907.00
2022-08-02T21:33:57.355Z,99908.38
2022-08-02T21:36:33.909Z,99908.91
2022-08-02T21:39:09.501Z,99911.34
2022-08-02T21:41:46.651Z,99912.44
2022-08-02T21:44:19.364Z,99911.09
2022-08-02T21:46:51.729Z,99922.75
2022-08-02T21:49:41.134Z,99920.88
2022-08-02T21:52:14.775Z,99924.38
2022-08-02T21:54:47.260Z,99916.22
2022-08-02T21:57:18.742Z,99928.44
2022-08-02T21:59:52.809Z,99928.16
2022-08-02T22:02:31.016Z,99927.03
2022-08-02T22:05:03.254Z,99932.19
2022-08-02T22:07:38.148Z,99931.16
2022-08-02T22:10:12.422Z,99942.78
2022-08-02T22:12:42.807Z,99941.69
2022-08-02T22:15:15.611Z,99929.72
2022-08-02T22:17:50.863Z,99937.56
2022-08-02T22:20:23.628Z,99942.72
2022-08-02T22:22:53.980Z,99943.22
2022-08-02T22:25:31.399Z,99943.75
2022-08-02T22:28:37.983Z,99947.28
2022-08-02T22:31:06.015Z,99959.19
2022-08-02T22:34:00.378Z,99958.63
2022-08-02T22:36:49.725Z,99959.66
2022-08-02T22:39:19.800Z,99953.63
2022-08-02T22:42:05.768Z,99966.94
2022-08-02T22:44:37.582Z,99970.16
2022-08-02T22:47:14.550Z,99964.44
2022-08-02T22:49:53.115Z,99974.19
2022-08-02T22:52:26.106Z,99975.84
2022-08-02T22:54:56.380Z,99975.03
2022-08-02T22:57:30.801Z,99973.13
2022-08-02T22:58:37.238Z,99897.44
2022-08-02T22:59:00.084Z,99883.69
2022-08-02T22:59:05.946Z,99868.44
2022-08-02T23:00:02.358Z,99981.28
2022-08-02T23:02:33.171Z,99981.28
2022-08-02T23:05:03.597Z,99973.63
2022-08-02T23:07:39.024Z,99972.47
2022-08-02T23:10:09.812Z,99969.16
2022-08-02T23:12:39.884Z,99973.22
2022-08-02T23:15:09.607Z,99973.44
2022-08-02T23:17:57.633Z,99976.66
2022-08-02T23:20:28.244Z,99978.25
2022-08-02T23:22:58.465Z,99975.22
2022-08-02T23:25:28.634Z,99974.38
2022-08-02T23:27:58.715Z,99980.81
2022-08-02T23:30:28.721Z,99979.72
2022-08-02T23:32:58.714Z,99984.06
2022-08-02T23:35:28.771Z,99986.78
2022-08-02T23:38:01.118Z,99989.19
2022-08-02T23:40:40.642Z,99984.38
2022-08-02T23:46:11.943Z,99982.59
2022-08-02T23:48:42.045Z,99996.44
2022-08-02T23:54:27.559Z,99991.28
2022-08-02T23:56:57.790Z,99993.13
2022-08-02T23:59:28.304Z,99993.13
